Time;durP1;ratioP1;P1;durP2;ratioP2;P2;SDS_P1;SDS_P2;PMS_P1;PMS_P2;Temp;Humidity;BMP_temperature;BMP_pressure;BME280_temperature;BME280_humidity;BME280_pressure;Samples;Min_cycle;Max_cycle;Signal;HPM_P1;HPM_P2
2022/11/30 00:03:04;;;;;;;44.43;37.30;;;9.60;99.90;;;;;;10261036;28;20221;-80
2022/11/30 00:08:06;;;;;;;43.33;38.50;;;9.60;99.90;;;;;;10249493;28;20185;-79
2022/11/30 00:13:10;;;;;;;43.77;37.20;;;9.50;99.90;;;;;;10274469;28;20192;-80
2022/11/30 00:18:12;;;;;;;45.10;38.80;;;9.50;99.90;;;;;;10279318;28;20255;-81
2022/11/30 00:23:14;;;;;;;48.53;40.97;;;9.40;99.90;;;;;;10273609;28;20224;-79
2022/11/30 00:28:17;;;;;;;49.53;41.07;;;9.40;99.90;;;;;;10255693;28;20282;-80
2022/11/30 00:33:19;;;;;;;49.70;40.90;;;9.30;99.90;;;;;;10262544;28;20597;-78
2022/11/30 00:38:21;;;;;;;45.60;39.30;;;9.30;99.90;;;;;;10237706;28;20216;-78
2022/11/30 00:43:25;;;;;;;49.13;41.00;;;9.30;99.90;;;;;;10237816;28;20247;-79
2022/11/30 00:48:27;;;;;;;48.30;41.60;;;9.30;99.90;;;;;;10242266;28;20712;-81
2022/11/30 00:53:29;;;;;;;50.10;40.77;;;9.30;99.90;;;;;;10240497;28;20643;-80
2022/11/30 00:58:32;;;;;;;51.90;42.43;;;9.30;99.90;;;;;;10233099;28;20216;-80
2022/11/30 01:03:36;;;;;;;52.50;42.57;;;9.30;99.90;;;;;;10235065;28;20292;-79
2022/11/30 01:08:38;;;;;;;47.20;41.10;;;9.30;99.90;;;;;;10237326;28;20243;-79
2022/11/30 01:13:41;;;;;;;55.57;42.93;;;9.30;99.90;;;;;;10242055;28;20239;-79
2022/11/30 01:18:44;;;;;;;50.70;42.93;;;9.30;99.90;;;;;;10235675;28;20248;-80
2022/11/30 01:23:47;;;;;;;52.60;43.73;;;9.20;99.90;;;;;;10233827;28;20247;-79
2022/11/30 01:28:52;;;;;;;50.33;44.07;;;9.20;99.90;;;;;;10271119;28;20271;-78
2022/11/30 01:33:55;;;;;;;52.47;44.47;;;9.20;99.90;;;;;;10265420;28;20192;-80
2022/11/30 01:38:58;;;;;;;52.40;44.00;;;9.20;99.90;;;;;;10291432;28;20791;-78
2022/11/30 01:44:32;;;;;;;56.03;46.57;;;9.10;99.90;;;;;;10299668;28;20294;-79
2022/11/30 01:49:39;;;;;;;51.53;43.63;;;9.20;99.90;;;;;;10249771;28;20225;-80
2022/11/30 01:54:46;;;;;;;51.73;42.23;;;9.10;99.90;;;;;;10287961;28;20207;-79
2022/11/30 01:59:50;;;;;;;48.00;42.83;;;9.20;99.90;;;;;;10292596;28;20303;-78
2022/11/30 02:04:53;;;;;;;46.97;41.20;;;9.10;99.90;;;;;;10290936;28;20279;-78
2022/11/30 02:09:55;;;;;;;48.57;43.27;;;9.10;99.90;;;;;;10294358;28;20234;-79
2022/11/30 02:15:01;;;;;;;49.53;43.37;;;9.10;99.90;;;;;;10267199;28;20199;-79
2022/11/30 02:20:33;;;;;;;49.90;44.47;;;9.10;99.90;;;;;;10271260;28;20295;-80
2022/11/30 02:25:45;;;;;;;48.33;41.57;;;9.10;99.90;;;;;;10288681;28;20286;-78
2022/11/30 02:30:52;;;;;;;52.73;44.53;;;9.00;99.90;;;;;;10291146;28;20224;-78
2022/11/30 02:35:56;;;;;;;47.03;41.77;;;9.00;99.90;;;;;;10289886;28;20192;-78
2022/11/30 02:40:58;;;;;;;50.93;43.30;;;9.00;99.90;;;;;;10273607;28;20230;-77
2022/11/30 02:46:09;;;;;;;52.10;42.07;;;8.90;99.90;;;;;;10257439;28;20256;-78
2022/11/30 02:51:17;;;;;;;49.73;42.77;;;8.90;99.90;;;;;;10275395;28;20271;-79
2022/11/30 02:56:20;;;;;;;53.40;43.03;;;8.90;99.90;;;;;;10201716;29;20268;-77
2022/11/30 03:01:25;;;;;;;44.73;39.97;;;8.90;99.90;;;;;;10261444;28;20652;-77
2022/11/30 03:06:27;;;;;;;44.17;39.30;;;9.00;99.90;;;;;;10248938;28;20269;-78
2022/11/30 03:11:29;;;;;;;43.77;39.10;;;9.00;99.90;;;;;;10241000;28;20224;-78
2022/11/30 03:16:33;;;;;;;44.97;39.23;;;9.00;99.90;;;;;;10286503;28;20808;-80
2022/11/30 03:21:35;;;;;;;43.23;38.53;;;9.00;99.90;;;;;;10288182;28;20212;-82
2022/11/30 03:26:37;;;;;;;41.93;36.90;;;9.10;99.90;;;;;;10288179;28;20196;-82
2022/11/30 03:31:40;;;;;;;42.27;37.67;;;9.10;99.90;;;;;;10279485;28;20223;-82
2022/11/30 03:36:42;;;;;;;43.47;37.40;;;9.10;99.90;;;;;;10286537;28;20553;-81
2022/11/30 03:41:45;;;;;;;39.10;35.10;;;9.10;99.90;;;;;;10253264;28;20212;-81
2022/11/30 03:46:48;;;;;;;40.93;35.63;;;9.10;99.90;;;;;;10286406;28;20242;-80
2022/11/30 03:51:50;;;;;;;31.97;28.57;;;9.20;99.90;;;;;;10288572;28;20279;-80
2022/11/30 03:56:52;;;;;;;40.23;35.87;;;9.20;99.90;;;;;;10275139;28;20231;-82
2022/11/30 04:01:56;;;;;;;37.00;33.10;;;9.20;99.90;;;;;;10264782;28;20680;-82
2022/11/30 04:06:58;;;;;;;39.90;35.50;;;9.20;99.90;;;;;;10257284;28;20283;-81
2022/11/30 04:12:00;;;;;;;39.20;35.20;;;9.20;99.90;;;;;;10255638;28;20756;-81
2022/11/30 04:17:03;;;;;;;39.07;35.23;;;9.20;99.90;;;;;;10280614;28;20219;-81
2022/11/30 04:22:05;;;;;;;36.47;32.57;;;9.20;99.90;;;;;;10264748;28;20262;-82
2022/11/30 04:27:07;;;;;;;36.90;33.00;;;9.20;99.90;;;;;;10283092;28;20200;-82
2022/11/30 04:32:10;;;;;;;37.67;33.67;;;9.10;99.90;;;;;;10281947;28;20295;-82
2022/11/30 04:37:13;;;;;;;40.30;36.20;;;9.10;99.90;;;;;;10271544;28;20330;-82
2022/11/30 04:42:15;;;;;;;38.73;34.67;;;9.00;99.90;;;;;;10273105;29;20247;-81
2022/11/30 04:47:18;;;;;;;37.67;33.97;;;9.00;99.90;;;;;;10264993;28;20208;-81
2022/11/30 04:52:20;;;;;;;37.43;33.37;;;9.00;99.90;;;;;;10252581;28;20217;-82
2022/11/30 04:57:23;;;;;;;38.80;34.97;;;9.00;99.90;;;;;;10260731;28;20238;-82
2022/11/30 05:02:28;;;;;;;36.83;33.17;;;9.00;99.90;;;;;;10251195;28;20217;-80
2022/11/30 05:07:30;;;;;;;38.50;34.60;;;9.00;99.90;;;;;;10277279;28;20196;-82
2022/11/30 05:12:33;;;;;;;38.83;34.87;;;9.00;99.90;;;;;;10276734;28;20302;-82
2022/11/30 05:17:36;;;;;;;33.67;30.33;;;9.00;99.90;;;;;;10271576;28;20204;-83
2022/11/30 05:22:38;;;;;;;35.63;32.03;;;9.00;99.90;;;;;;10279669;28;20254;-82
2022/11/30 05:27:40;;;;;;;35.83;32.30;;;9.00;99.90;;;;;;10280883;28;20293;-82
2022/11/30 05:32:43;;;;;;;36.40;32.67;;;9.10;99.90;;;;;;10280630;28;20216;-82
2022/11/30 05:37:45;;;;;;;36.43;31.73;;;9.10;99.90;;;;;;10233092;28;20670;-80
2022/11/30 05:42:55;;;;;;;35.70;32.00;;;9.20;99.90;;;;;;10278852;28;20218;-81
2022/11/30 05:47:58;;;;;;;33.87;30.40;;;9.30;99.90;;;;;;10275020;28;20207;-79
2022/11/30 05:53:00;;;;;;;33.50;29.90;;;9.30;99.90;;;;;;10270315;28;20192;-80
2022/11/30 05:58:02;;;;;;;33.50;30.20;;;9.30;99.90;;;;;;10259904;28;20287;-80
2022/11/30 06:03:06;;;;;;;32.13;29.13;;;9.40;99.90;;;;;;10278701;28;20315;-81
2022/11/30 06:08:08;;;;;;;32.43;29.23;;;9.40;99.90;;;;;;10254815;28;20242;-81
2022/11/30 06:13:10;;;;;;;31.50;28.30;;;9.40;99.90;;;;;;10264792;28;20235;-80
2022/11/30 06:18:14;;;;;;;29.03;26.00;;;9.40;99.90;;;;;;10235241;29;20204;-80
2022/11/30 06:23:22;;;;;;;31.10;28.10;;;9.40;99.90;;;;;;10247366;28;20326;-79
2022/11/30 06:28:44;;;;;;;31.27;28.17;;;9.40;99.90;;;;;;10256220;28;20224;-80
2022/11/30 06:33:48;;;;;;;32.30;29.10;;;9.40;99.90;;;;;;10271379;28;20203;-80
2022/11/30 06:38:50;;;;;;;29.37;26.47;;;9.40;99.90;;;;;;10273505;28;20244;-78
2022/11/30 06:43:52;;;;;;;30.33;27.33;;;9.40;99.90;;;;;;10275600;28;20661;-80
2022/11/30 06:48:56;;;;;;;30.57;27.40;;;9.40;99.90;;;;;;10260051;28;20390;-79
2022/11/30 06:53:58;;;;;;;29.77;26.93;;;9.40;99.90;;;;;;10272664;28;20669;-81
2022/11/30 06:59:00;;;;;;;29.83;26.93;;;9.40;99.90;;;;;;10264981;28;20348;-80
2022/11/30 07:04:03;;;;;;;30.50;27.37;;;9.40;99.90;;;;;;10271862;28;20230;-79
2022/11/30 07:09:06;;;;;;;29.90;26.73;;;9.40;99.90;;;;;;10312893;22;20256;-77
2022/11/30 07:14:08;;;;;;;30.40;27.43;;;9.40;99.90;;;;;;10419321;28;20233;-78
2022/11/30 07:19:11;;;;;;;30.97;27.77;;;9.40;99.90;;;;;;10420850;28;20217;-78
2022/11/30 07:29:35;;;;;;;32.73;29.37;;;9.50;99.90;;;;;;10369224;28;20210;-78
2022/11/30 07:34:39;;;;;;;31.37;27.83;;;9.50;99.90;;;;;;10412752;28;20239;-79
2022/11/30 07:39:43;;;;;;;33.23;29.80;;;9.50;99.90;;;;;;10397508;28;20218;-80
2022/11/30 07:44:45;;;;;;;31.97;28.63;;;9.50;99.90;;;;;;10411936;28;20221;-79
2022/11/30 07:49:49;;;;;;;30.40;27.20;;;9.50;99.90;;;;;;10355695;28;20218;-80
2022/11/30 07:54:51;;;;;;;31.13;28.03;;;9.60;99.90;;;;;;10414042;28;20199;-81
2022/11/30 07:59:53;;;;;;;30.90;27.93;;;9.60;99.90;;;;;;10380433;28;20300;-81
2022/11/30 08:04:57;;;;;;;29.87;26.90;;;9.60;99.90;;;;;;10412372;28;20701;-79
2022/11/30 08:09:59;;;;;;;30.20;27.10;;;9.60;99.90;;;;;;10348938;28;20221;-78
2022/11/30 08:15:01;;;;;;;30.93;27.50;;;9.70;99.90;;;;;;10416383;28;20194;-76
2022/11/30 08:20:08;;;;;;;34.90;31.20;;;9.70;99.90;;;;;;10405105;28;20317;-77
2022/11/30 08:25:11;;;;;;;33.17;29.67;;;9.80;99.90;;;;;;10365328;28;20678;-79
2022/11/30 08:30:13;;;;;;;31.80;27.53;;;9.90;99.90;;;;;;10380144;28;20221;-80
2022/11/30 08:35:17;;;;;;;31.83;26.97;;;9.90;99.90;;;;;;10380911;28;20202;-80
2022/11/30 08:40:19;;;;;;;32.70;28.67;;;9.90;99.90;;;;;;10402066;28;20214;-79
2022/11/30 08:45:21;;;;;;;31.63;28.07;;;9.80;99.90;;;;;;10384297;28;20311;-76
2022/11/30 08:50:25;;;;;;;32.50;27.37;;;9.90;99.90;;;;;;10371583;28;20237;-79
2022/11/30 08:55:27;;;;;;;33.83;27.90;;;9.90;99.90;;;;;;10406041;28;20646;-78
2022/11/30 09:00:29;;;;;;;29.97;26.47;;;9.90;99.90;;;;;;10394275;28;20431;-78
2022/11/30 09:05:32;;;;;;;29.13;25.37;;;9.90;99.90;;;;;;10395492;28;20223;-78
2022/11/30 09:10:35;;;;;;;28.70;25.60;;;10.00;99.90;;;;;;10389821;28;20226;-77
2022/11/30 09:15:37;;;;;;;32.00;28.60;;;10.00;99.90;;;;;;10395291;28;20607;-77
2022/11/30 09:20:40;;;;;;;34.33;28.60;;;10.10;99.90;;;;;;10373036;28;20751;-78
2022/11/30 09:25:42;;;;;;;28.40;25.10;;;10.10;99.90;;;;;;10387264;28;20268;-78
2022/11/30 09:30:44;;;;;;;30.37;27.17;;;10.20;99.90;;;;;;10385346;28;20256;-79
2022/11/30 09:35:56;;;;;;;26.47;23.80;;;10.20;99.90;;;;;;10388968;28;20650;-79
2022/11/30 09:41:00;;;;;;;30.00;26.80;;;10.20;99.90;;;;;;10400997;28;20241;-80
2022/11/30 09:46:07;;;;;;;26.27;22.63;;;10.20;99.90;;;;;;10405797;28;20248;-80
2022/11/30 09:51:17;;;;;;;26.73;23.70;;;10.20;99.90;;;;;;10400415;28;20228;-79
2022/11/30 09:56:24;;;;;;;28.43;25.37;;;10.20;99.90;;;;;;10393109;28;20236;-80
2022/11/30 10:01:26;;;;;;;27.90;24.87;;;10.20;99.90;;;;;;10418507;28;20267;-80
2022/11/30 10:06:39;;;;;;;27.90;24.90;;;10.30;99.90;;;;;;10401264;28;20311;-78
2022/11/30 10:11:54;;;;;;;26.90;24.00;;;10.30;99.90;;;;;;10418971;28;20328;-78
2022/11/30 10:17:06;;;;;;;28.90;24.90;;;10.30;99.90;;;;;;10383911;28;20201;-79
2022/11/30 10:22:20;;;;;;;24.57;22.00;;;10.40;99.90;;;;;;10401324;28;20309;-79
2022/11/30 10:27:38;;;;;;;26.07;21.90;;;10.40;99.90;;;;;;10384643;28;20249;-80
2022/11/30 10:32:41;;;;;;;26.77;23.87;;;10.40;99.90;;;;;;10388510;28;20218;-77
2022/11/30 10:37:47;;;;;;;24.30;21.30;;;10.40;99.90;;;;;;10405020;28;20200;-80
2022/11/30 10:42:55;;;;;;;25.67;21.50;;;10.40;99.90;;;;;;10389381;28;20213;-77
2022/11/30 10:48:03;;;;;;;21.70;19.40;;;10.40;99.90;;;;;;10439501;28;20551;-77
2022/11/30 10:53:10;;;;;;;21.23;18.80;;;10.50;99.90;;;;;;10403723;28;20210;-77
2022/11/30 10:58:19;;;;;;;20.90;18.73;;;10.50;99.90;;;;;;10386422;28;20723;-81
2022/11/30 11:03:23;;;;;;;21.20;18.57;;;10.50;99.90;;;;;;10402668;28;20636;-77
2022/11/30 11:08:27;;;;;;;21.37;19.17;;;10.50;99.90;;;;;;10401396;28;20269;-78
2022/11/30 11:13:37;;;;;;;22.60;20.40;;;10.40;99.90;;;;;;10419317;28;20284;-79
2022/11/30 11:18:52;;;;;;;22.73;20.30;;;10.50;99.90;;;;;;10419866;28;20304;-79
2022/11/30 11:23:57;;;;;;;21.63;19.30;;;10.40;99.90;;;;;;10381534;28;20663;-77
2022/11/30 11:29:02;;;;;;;24.77;21.47;;;10.50;99.90;;;;;;10379298;28;20729;-80
2022/11/30 11:34:22;;;;;;;22.03;19.73;;;10.50;99.90;;;;;;10397060;28;20202;-80
2022/11/30 11:39:27;;;;;;;22.17;17.90;;;10.50;99.90;;;;;;10394415;28;20214;-79
2022/11/30 11:44:29;;;;;;;20.37;18.17;;;10.50;99.90;;;;;;10414835;28;20220;-77
2022/11/30 11:49:34;;;;;;;16.83;15.13;;;10.50;99.90;;;;;;10419822;28;20313;-77
2022/11/30 11:54:41;;;;;;;17.00;15.23;;;10.60;99.90;;;;;;10420470;28;20205;-78
2022/11/30 11:59:49;;;;;;;17.20;15.37;;;10.60;99.90;;;;;;10387464;28;20288;-77
2022/11/30 12:04:54;;;;;;;16.50;14.90;;;10.70;99.90;;;;;;10384933;28;20793;-76
2022/11/30 12:10:25;;;;;;;20.07;18.07;;;10.70;99.90;;;;;;10406300;28;20234;-81
2022/11/30 12:15:33;;;;;;;17.80;15.63;;;10.60;99.90;;;;;;10411165;28;20197;-77
2022/11/30 12:20:46;;;;;;;19.33;17.30;;;10.60;99.90;;;;;;10401817;28;20221;-78
2022/11/30 12:25:59;;;;;;;20.87;18.57;;;10.50;99.90;;;;;;10416221;28;20272;-80
2022/11/30 12:31:11;;;;;;;21.40;19.20;;;10.50;99.90;;;;;;10419800;28;20256;-79
2022/11/30 12:36:19;;;;;;;21.17;17.93;;;10.50;99.90;;;;;;10396612;28;20200;-79
2022/11/30 12:41:40;;;;;;;20.47;18.33;;;10.60;99.90;;;;;;10413964;28;20731;-79
2022/11/30 12:46:53;;;;;;;20.67;18.47;;;10.50;99.90;;;;;;10427693;28;20221;-78
2022/11/30 12:52:09;;;;;;;19.87;17.93;;;10.50;99.90;;;;;;10395113;28;20271;-80
2022/11/30 12:57:19;;;;;;;19.80;17.83;;;10.50;99.90;;;;;;10393701;28;20228;-78
2022/11/30 13:02:54;;;;;;;16.27;14.60;;;10.50;99.90;;;;;;10393087;28;20222;-79
2022/11/30 13:08:02;;;;;;;17.30;15.53;;;10.40;99.90;;;;;;10389948;28;20245;-79
2022/11/30 13:13:11;;;;;;;16.90;15.10;;;10.40;99.90;;;;;;10396453;28;20283;-78
2022/11/30 13:18:18;;;;;;;19.37;17.47;;;10.40;99.90;;;;;;10388836;28;20217;-78
2022/11/30 13:23:30;;;;;;;24.60;18.50;;;10.40;99.90;;;;;;10380569;28;20247;-79
2022/11/30 13:28:56;;;;;;;32.33;22.53;;;10.30;99.90;;;;;;10401109;28;20197;-79
2022/11/30 13:33:59;;;;;;;22.80;18.83;;;10.20;99.90;;;;;;10406967;28;20206;-79
2022/11/30 13:39:23;;;;;;;21.93;19.63;;;10.20;99.90;;;;;;10407716;28;20241;-79
2022/11/30 13:44:32;;;;;;;22.63;20.30;;;10.20;99.90;;;;;;10392360;28;20309;-79
2022/11/30 13:49:36;;;;;;;22.33;19.97;;;10.20;99.90;;;;;;10399906;28;20229;-78
2022/11/30 13:54:44;;;;;;;22.17;19.77;;;10.10;99.90;;;;;;10407856;28;20573;-78
2022/11/30 13:59:50;;;;;;;20.93;18.83;;;10.10;99.90;;;;;;10382375;28;20213;-78
2022/11/30 14:04:52;;;;;;;19.60;17.60;;;10.10;99.90;;;;;;10402985;28;20257;-79
2022/11/30 14:09:59;;;;;;;19.00;17.07;;;10.10;99.90;;;;;;10419419;28;20319;-78
2022/11/30 14:15:22;;;;;;;19.60;17.63;;;10.10;99.90;;;;;;10402388;28;20676;-78
2022/11/30 14:20:33;;;;;;;19.20;17.40;;;10.10;99.90;;;;;;10421758;28;20297;-78
2022/11/30 14:25:35;;;;;;;18.63;16.73;;;10.20;99.90;;;;;;10416310;28;20717;-79
2022/11/30 14:30:40;;;;;;;19.00;17.10;;;10.10;99.90;;;;;;10402501;28;20214;-79
2022/11/30 14:35:43;;;;;;;23.93;17.37;;;10.10;99.90;;;;;;10386973;28;20245;-79
2022/11/30 14:40:51;;;;;;;18.63;16.77;;;10.10;99.90;;;;;;10398716;28;20228;-79
2022/11/30 14:45:59;;;;;;;20.73;18.67;;;10.20;99.90;;;;;;10393600;28;20224;-79
2022/11/30 14:51:03;;;;;;;19.20;17.10;;;10.20;99.90;;;;;;10421279;28;20293;-78
2022/11/30 14:56:15;;;;;;;21.30;19.10;;;10.10;99.90;;;;;;10401513;28;20186;-79
2022/11/30 15:01:21;;;;;;;19.27;17.37;;;10.10;99.90;;;;;;10400100;28;20249;-78
2022/11/30 15:06:29;;;;;;;21.33;19.13;;;10.10;99.90;;;;;;10411275;28;20210;-79
2022/11/30 15:11:31;;;;;;;20.73;18.60;;;10.10;99.90;;;;;;10391240;28;20226;-78
2022/11/30 15:16:35;;;;;;;21.10;19.00;;;10.10;99.90;;;;;;10402066;28;20206;-78
2022/11/30 15:21:37;;;;;;;23.20;19.53;;;10.10;99.90;;;;;;10413201;28;20281;-78
2022/11/30 15:26:50;;;;;;;21.40;19.10;;;10.10;99.90;;;;;;10411495;28;20253;-78
2022/11/30 15:31:55;;;;;;;22.30;19.50;;;10.00;99.90;;;;;;10397007;28;20721;-79
2022/11/30 15:36:59;;;;;;;23.43;20.33;;;10.00;99.90;;;;;;10407142;28;20194;-79
2022/11/30 15:42:03;;;;;;;22.37;20.00;;;10.00;99.90;;;;;;10400146;28;20246;-79
2022/11/30 15:47:23;;;;;;;26.10;22.43;;;10.00;99.90;;;;;;10387693;28;20272;-78
2022/11/30 15:52:27;;;;;;;21.10;16.23;;;10.00;99.90;;;;;;10400370;28;20742;-79
2022/11/30 15:57:56;;;;;;;22.50;20.10;;;10.00;99.90;;;;;;10412780;28;20545;-77
2022/11/30 16:03:10;;;;;;;24.87;22.00;;;10.00;99.90;;;;;;10397997;28;20616;-79
2022/11/30 16:08:16;;;;;;;24.80;22.20;;;10.00;99.90;;;;;;10407581;28;20222;-79
2022/11/30 16:13:20;;;;;;;26.40;21.50;;;10.00;99.90;;;;;;10396908;28;20289;-78
2022/11/30 16:18:25;;;;;;;29.10;23.10;;;10.00;99.90;;;;;;10388887;28;20249;-78
2022/11/30 16:23:28;;;;;;;25.60;21.93;;;9.90;99.90;;;;;;10396014;28;20280;-79
2022/11/30 16:28:30;;;;;;;25.90;22.90;;;9.90;99.90;;;;;;10388128;28;20559;-78
2022/11/30 16:33:34;;;;;;;24.73;21.20;;;9.90;99.90;;;;;;10398966;28;20229;-78
2022/11/30 16:38:36;;;;;;;29.67;23.77;;;9.90;99.90;;;;;;10405367;28;20229;-79
2022/11/30 16:43:39;;;;;;;29.20;23.53;;;9.90;99.90;;;;;;10397780;28;20616;-78
2022/11/30 16:48:43;;;;;;;39.03;32.63;;;9.90;99.90;;;;;;10402893;28;20613;-78
2022/11/30 16:53:45;;;;;;;29.77;24.60;;;9.90;99.90;;;;;;10402277;28;20666;-79
2022/11/30 16:58:47;;;;;;;26.60;23.70;;;9.90;99.90;;;;;;10386743;28;20312;-79
2022/11/30 17:03:52;;;;;;;32.13;23.17;;;9.90;99.90;;;;;;10411817;28;20193;-79
2022/11/30 17:08:54;;;;;;;25.87;21.70;;;9.90;99.90;;;;;;10405915;28;20233;-79
2022/11/30 17:13:56;;;;;;;27.53;23.23;;;9.90;99.90;;;;;;10384088;28;20224;-79
2022/11/30 17:18:59;;;;;;;24.20;21.60;;;9.90;99.90;;;;;;10411893;28;20241;-80
2022/11/30 17:24:02;;;;;;;24.40;21.50;;;9.90;99.90;;;;;;10409235;28;20194;-79
2022/11/30 17:29:04;;;;;;;29.80;26.70;;;9.90;99.90;;;;;;10426493;28;20214;-79
2022/11/30 17:34:08;;;;;;;25.53;22.30;;;9.90;99.90;;;;;;10421009;28;20208;-76
2022/11/30 17:39:10;;;;;;;22.83;20.43;;;9.90;99.90;;;;;;10424192;28;20240;-79
2022/11/30 17:44:12;;;;;;;23.63;20.17;;;9.90;99.90;;;;;;10388160;28;20233;-79
2022/11/30 17:49:15;;;;;;;26.30;20.87;;;9.80;99.90;;;;;;10405935;28;20265;-80
2022/11/30 17:54:18;;;;;;;22.30;19.90;;;9.80;99.90;;;;;;10425701;28;20221;-79
2022/11/30 17:59:20;;;;;;;17.80;15.90;;;9.80;99.90;;;;;;10427117;28;20636;-79
2022/11/30 18:04:23;;;;;;;21.03;18.93;;;9.70;99.90;;;;;;10404225;28;20268;-79
2022/11/30 18:09:26;;;;;;;18.53;16.63;;;9.70;99.90;;;;;;10402701;28;20229;-78
2022/11/30 18:14:28;;;;;;;18.30;16.40;;;9.70;99.90;;;;;;10402869;28;20198;-78
2022/11/30 18:19:32;;;;;;;17.70;15.97;;;9.70;99.90;;;;;;10403177;28;20316;-78
2022/11/30 18:24:34;;;;;;;17.87;16.27;;;9.70;99.90;;;;;;10384610;28;20218;-79
2022/11/30 18:29:36;;;;;;;18.10;16.40;;;9.70;99.90;;;;;;10414734;28;20305;-79
2022/11/30 18:34:39;;;;;;;18.10;16.30;;;9.70;99.90;;;;;;10418549;28;20297;-78
2022/11/30 18:39:42;;;;;;;18.23;16.33;;;9.70;99.90;;;;;;10400659;28;20233;-79
2022/11/30 18:44:44;;;;;;;17.50;15.73;;;9.60;99.90;;;;;;10418580;28;20214;-78
2022/11/30 18:49:47;;;;;;;19.20;17.20;;;9.60;99.90;;;;;;10419332;28;20209;-78
2022/11/30 18:54:49;;;;;;;17.67;15.87;;;9.60;99.90;;;;;;10420443;28;20194;-79
2022/11/30 18:59:51;;;;;;;18.97;17.03;;;9.50;99.90;;;;;;10418767;28;20659;-79
2022/11/30 19:04:55;;;;;;;21.60;18.20;;;9.50;99.90;;;;;;10419293;28;20202;-79
2022/11/30 19:09:57;;;;;;;20.27;17.63;;;9.50;99.90;;;;;;10400298;28;20214;-78
2022/11/30 19:15:00;;;;;;;20.87;17.37;;;9.50;99.90;;;;;;10418891;28;20255;-79
2022/11/30 19:20:04;;;;;;;20.13;18.03;;;9.50;99.90;;;;;;10397444;28;20217;-79
2022/11/30 19:25:07;;;;;;;22.17;17.70;;;9.40;99.90;;;;;;10396354;28;20652;-78
2022/11/30 19:30:10;;;;;;;22.13;19.73;;;9.30;99.90;;;;;;10365345;28;20304;-79
2022/11/30 19:35:14;;;;;;;22.30;19.53;;;9.30;99.90;;;;;;10379004;28;20250;-78
2022/11/30 19:40:16;;;;;;;23.27;20.27;;;9.30;99.90;;;;;;10418692;28;20593;-78
2022/11/30 19:45:18;;;;;;;21.67;19.27;;;9.30;99.90;;;;;;10386343;28;20260;-78
2022/11/30 19:50:23;;;;;;;22.03;19.60;;;9.30;99.90;;;;;;10419846;28;20261;-79
2022/11/30 19:55:25;;;;;;;23.47;20.30;;;9.30;99.90;;;;;;10419494;28;20199;-79
2022/11/30 20:00:27;;;;;;;23.07;19.60;;;9.30;99.90;;;;;;10420246;28;20213;-78
2022/11/30 20:05:30;;;;;;;19.93;17.60;;;9.30;99.90;;;;;;10399462;28;20212;-78
2022/11/30 20:10:32;;;;;;;21.97;17.40;;;9.30;99.90;;;;;;10417343;28;20226;-79
2022/11/30 20:15:37;;;;;;;19.73;16.83;;;9.20;99.90;;;;;;10402283;28;20194;-78
2022/11/30 20:20:40;;;;;;;18.87;15.90;;;9.20;99.90;;;;;;10417649;28;20305;-79
2022/11/30 20:25:42;;;;;;;19.57;16.50;;;9.10;99.90;;;;;;10417070;28;20690;-78
2022/11/30 20:30:44;;;;;;;20.57;18.17;;;9.10;99.90;;;;;;10416953;28;20296;-79
2022/11/30 20:35:47;;;;;;;18.90;16.57;;;9.10;99.90;;;;;;10402376;28;20684;-79
2022/11/30 20:40:49;;;;;;;19.63;17.30;;;9.10;99.90;;;;;;10397930;28;20217;-80
2022/11/30 20:45:52;;;;;;;20.30;18.10;;;9.10;99.90;;;;;;10387705;28;20225;-80
2022/11/30 20:50:55;;;;;;;21.53;17.67;;;9.10;99.90;;;;;;10413324;28;20221;-79
2022/11/30 20:56:00;;;;;;;19.60;17.40;;;9.00;99.90;;;;;;10397046;28;20194;-77
2022/11/30 21:01:09;;;;;;;19.63;17.27;;;9.00;99.90;;;;;;10372070;28;20280;-79
2022/11/30 21:06:13;;;;;;;17.10;15.27;;;9.00;99.90;;;;;;10418325;28;20210;-79
2022/11/30 21:11:17;;;;;;;21.83;15.90;;;8.90;99.90;;;;;;10410125;28;20228;-80
2022/11/30 21:16:22;;;;;;;18.23;15.70;;;8.90;99.90;;;;;;10399498;28;20198;-80
2022/11/30 21:21:29;;;;;;;18.53;16.53;;;8.90;99.90;;;;;;10410762;28;20224;-80
2022/11/30 21:26:33;;;;;;;17.80;14.70;;;8.80;99.90;;;;;;10384565;28;20214;-81
2022/11/30 21:31:35;;;;;;;18.73;14.80;;;8.80;99.90;;;;;;10414038;28;20228;-81
2022/11/30 21:36:38;;;;;;;18.70;15.13;;;8.80;99.90;;;;;;10415880;28;20276;-80
2022/11/30 21:41:41;;;;;;;18.73;15.60;;;8.70;99.90;;;;;;10371694;28;20205;-79
2022/11/30 21:46:45;;;;;;;19.93;15.77;;;8.70;99.90;;;;;;10405667;28;20252;-81
2022/11/30 21:51:48;;;;;;;19.07;15.70;;;8.70;99.90;;;;;;10410358;28;20226;-80
2022/11/30 21:56:51;;;;;;;17.27;15.03;;;8.70;99.90;;;;;;10413369;28;20545;-81
2022/11/30 22:01:53;;;;;;;18.90;16.40;;;8.70;99.90;;;;;;10397640;28;20217;-78
2022/11/30 22:06:57;;;;;;;15.00;13.30;;;8.70;99.90;;;;;;10386170;28;20222;-77
2022/11/30 22:11:59;;;;;;;15.63;13.20;;;8.70;99.90;;;;;;10404138;28;20598;-77
2022/11/30 22:17:01;;;;;;;16.63;14.57;;;8.70;99.90;;;;;;10416069;28;20194;-80
2022/11/30 22:22:04;;;;;;;18.00;14.17;;;8.70;99.90;;;;;;10419864;28;20279;-77
2022/11/30 22:27:06;;;;;;;15.30;13.37;;;8.60;99.90;;;;;;10394420;28;20230;-81
2022/11/30 22:32:08;;;;;;;17.10;14.90;;;8.60;99.90;;;;;;10405982;28;20218;-81
2022/11/30 22:37:12;;;;;;;19.37;16.73;;;8.50;99.90;;;;;;10418738;28;20208;-77
2022/11/30 22:42:14;;;;;;;18.00;15.83;;;8.50;99.90;;;;;;10402872;28;20265;-78
2022/11/30 22:47:17;;;;;;;18.60;15.60;;;8.40;99.90;;;;;;10418945;28;20748;-78
2022/11/30 22:52:20;;;;;;;19.77;15.87;;;8.40;99.90;;;;;;10418883;28;20221;-78
2022/11/30 22:57:22;;;;;;;20.40;17.60;;;8.40;99.90;;;;;;10401848;28;20198;-77
2022/11/30 23:02:24;;;;;;;21.03;17.43;;;8.30;99.90;;;;;;10418600;28;20304;-77
2022/11/30 23:07:28;;;;;;;21.70;18.97;;;8.30;99.90;;;;;;10401439;28;20230;-78
2022/11/30 23:12:33;;;;;;;23.37;19.97;;;8.40;99.90;;;;;;10385186;28;20344;-80
2022/11/30 23:17:35;;;;;;;25.80;20.50;;;8.40;99.90;;;;;;10381055;28;20198;-78
2022/11/30 23:22:38;;;;;;;25.60;21.50;;;8.40;99.90;;;;;;10398974;28;20214;-79
2022/11/30 23:27:40;;;;;;;25.60;20.53;;;8.40;99.90;;;;;;10397799;28;20221;-79
2022/11/30 23:32:42;;;;;;;24.37;20.03;;;8.30;99.90;;;;;;10416722;28;20249;-80
2022/11/30 23:37:46;;;;;;;24.10;20.53;;;8.30;99.90;;;;;;10416384;28;20198;-80
2022/11/30 23:42:48;;;;;;;24.07;20.30;;;8.30;99.90;;;;;;10397772;28;20228;-79
2022/11/30 23:47:50;;;;;;;25.63;21.30;;;8.30;99.90;;;;;;10399803;28;20221;-79
2022/11/30 23:52:54;;;;;;;27.60;21.13;;;8.30;99.90;;;;;;10415801;28;20280;-79
2022/11/30 23:57:56;;;;;;;26.20;21.83;;;8.30;99.90;;;;;;10399416;28;20194;-80
